createdAt,value
2018-07-21T00:00:48.616Z,21.53
2018-07-21T00:01:48.648Z,21.52
2018-07-21T00:02:48.677Z,21.52
2018-07-21T00:03:48.698Z,21.51
2018-07-21T00:04:48.724Z,21.58
2018-07-21T00:05:48.748Z,21.51
2018-07-21T00:06:48.774Z,21.58
2018-07-21T00:07:48.800Z,21.49
2018-07-21T00:08:48.827Z,21.46
2018-07-21T00:09:48.858Z,21.40
2018-07-21T00:10:48.881Z,21.31
2018-07-21T00:11:48.909Z,21.31
2018-07-21T00:12:48.932Z,21.30
2018-07-21T00:13:48.961Z,21.30
2018-07-21T00:14:48.983Z,21.21
2018-07-21T00:15:49.010Z,21.16
2018-07-21T00:16:49.040Z,21.24
2018-07-21T00:17:49.064Z,21.33
2018-07-21T00:18:49.089Z,21.33
2018-07-21T00:19:49.118Z,21.27
2018-07-21T00:20:49.146Z,21.30
2018-07-21T00:21:49.168Z,21.38
2018-07-21T00:22:49.194Z,21.37
2018-07-21T00:23:49.220Z,21.37
2018-07-21T00:24:49.252Z,21.37
2018-07-21T00:25:49.274Z,21.36
2018-07-21T00:26:49.305Z,21.37
2018-07-21T00:27:49.324Z,21.37
2018-07-21T00:28:49.352Z,21.37
2018-07-21T00:29:49.381Z,21.37
2018-07-21T00:30:49.405Z,21.38
2018-07-21T00:31:49.428Z,21.30
2018-07-21T00:32:49.456Z,21.33
2018-07-21T00:33:49.486Z,21.28
2018-07-21T00:34:49.507Z,21.26
2018-07-21T00:35:49.537Z,21.30
2018-07-21T00:36:49.563Z,21.28
2018-07-21T00:37:49.588Z,21.21
2018-07-21T00:38:49.616Z,21.15
2018-07-21T00:39:49.638Z,21.11
2018-07-21T00:40:49.660Z,21.11
2018-07-21T00:41:49.695Z,21.09
2018-07-21T00:42:49.716Z,21.15
2018-07-21T00:43:49.742Z,21.13
2018-07-21T00:44:49.773Z,21.06
2018-07-21T00:45:49.798Z,21.12
2018-07-21T00:46:49.829Z,21.06
2018-07-21T00:47:49.846Z,21.05
2018-07-21T00:48:49.874Z,21.03
2018-07-21T00:49:49.905Z,21.12
2018-07-21T00:50:49.926Z,21.13
2018-07-21T00:51:49.951Z,21.09
2018-07-21T00:52:49.977Z,21.08
2018-07-21T00:53:50.002Z,21.15
2018-07-21T00:54:50.034Z,21.13
2018-07-21T00:55:50.058Z,21.09
2018-07-21T00:56:50.084Z,21.15
2018-07-21T00:57:50.108Z,21.06
2018-07-21T00:58:50.144Z,21.03
2018-07-21T00:59:50.159Z,21.05
2018-07-21T01:00:50.192Z,20.97
2018-07-21T01:01:50.220Z,21.00
2018-07-21T01:02:50.239Z,20.98
2018-07-21T01:03:50.266Z,21.01
2018-07-21T01:04:50.291Z,21.00
2018-07-21T01:05:50.319Z,20.97
2018-07-21T01:06:50.344Z,20.96
2018-07-21T01:07:50.372Z,20.97
2018-07-21T01:08:50.398Z,20.93
2018-07-21T01:09:50.422Z,20.93
2018-07-21T01:10:50.445Z,20.83
2018-07-21T01:11:50.479Z,20.85
2018-07-21T01:12:50.497Z,20.83
2018-07-21T01:13:50.525Z,20.83
2018-07-21T01:14:50.549Z,20.90
2018-07-21T01:15:50.582Z,20.88
2018-07-21T01:16:50.601Z,20.85
2018-07-21T01:17:50.630Z,20.87
2018-07-21T01:18:50.652Z,20.83
2018-07-21T01:19:50.680Z,20.88
2018-07-21T01:20:50.710Z,20.90
2018-07-21T01:21:50.733Z,20.87
2018-07-21T01:22:50.760Z,20.79
2018-07-21T01:23:50.782Z,20.82
2018-07-21T01:24:50.813Z,20.82
2018-07-21T01:25:50.832Z,20.81
2018-07-21T01:26:50.912Z,20.82
2018-07-21T01:27:50.894Z,20.82
2018-07-21T01:28:50.910Z,20.81
2018-07-21T01:29:50.939Z,20.78
2018-07-21T01:30:50.968Z,20.87
2018-07-21T01:31:50.992Z,20.79
2018-07-21T01:32:51.016Z,20.85
2018-07-21T01:33:51.050Z,20.81
2018-07-21T01:34:51.070Z,20.69
2018-07-21T01:35:51.099Z,20.75
2018-07-21T01:36:51.120Z,20.66
2018-07-21T01:37:51.146Z,20.71
2018-07-21T01:38:51.167Z,20.69
2018-07-21T01:39:51.194Z,20.71
2018-07-21T01:40:51.228Z,20.72
2018-07-21T01:41:51.247Z,20.71
2018-07-21T01:42:51.280Z,20.78
2018-07-21T01:43:51.301Z,20.78
2018-07-21T01:44:51.324Z,20.81
2018-07-21T01:45:51.363Z,20.79
2018-07-21T01:46:51.376Z,20.81
2018-07-21T01:47:51.408Z,20.81
2018-07-21T01:48:51.437Z,20.85
2018-07-21T01:49:51.456Z,20.78
2018-07-21T01:50:51.482Z,20.81
2018-07-21T01:51:51.508Z,20.78
2018-07-21T01:52:51.530Z,20.79
2018-07-21T01:53:51.561Z,20.88
2018-07-21T01:54:51.584Z,20.81
2018-07-21T01:55:51.612Z,20.85
2018-07-21T01:56:51.636Z,20.83
2018-07-21T01:57:51.664Z,20.83
2018-07-21T01:58:51.686Z,20.90
2018-07-21T01:59:51.719Z,20.81
2018-07-21T02:00:51.742Z,20.75
2018-07-21T02:01:51.774Z,20.85
2018-07-21T02:02:51.790Z,20.79
2018-07-21T02:03:51.822Z,20.82
2018-07-21T02:04:51.850Z,20.79
2018-07-21T02:05:51.864Z,20.90
2018-07-21T02:06:51.903Z,20.81
2018-07-21T02:07:51.922Z,20.81
2018-07-21T02:08:51.945Z,20.81
2018-07-21T02:09:51.976Z,20.78
2018-07-21T02:10:52.002Z,20.76
2018-07-21T02:11:52.028Z,20.66
2018-07-21T02:12:52.054Z,20.63
2018-07-21T02:13:52.076Z,20.71
2018-07-21T02:14:52.102Z,20.60
2018-07-21T02:15:52.127Z,20.63
2018-07-21T02:16:52.156Z,20.60
2018-07-21T02:17:52.186Z,20.54
2018-07-21T02:18:52.222Z,20.58
2018-07-21T02:19:52.230Z,20.58
2018-07-21T02:20:52.258Z,20.58
2018-07-21T02:21:52.283Z,20.61
2018-07-21T02:22:52.310Z,20.54
2018-07-21T02:23:52.363Z,20.63
2018-07-21T02:24:52.359Z,20.57
2018-07-21T02:25:52.386Z,20.60
2018-07-21T02:26:52.410Z,20.68
2018-07-21T02:27:52.441Z,20.71
2018-07-21T02:28:52.464Z,20.64
2018-07-21T02:29:52.492Z,20.58
2018-07-21T02:30:52.516Z,20.66
2018-07-21T02:31:52.602Z,20.68
2018-07-21T02:32:52.566Z,20.64
2018-07-21T02:33:52.596Z,20.61
2018-07-21T02:34:52.622Z,20.60
2018-07-21T02:35:52.648Z,20.58
2018-07-21T02:36:52.674Z,20.58
2018-07-21T02:37:52.698Z,20.56
2018-07-21T02:38:52.722Z,20.61
2018-07-21T02:39:52.747Z,20.60
2018-07-21T02:40:52.773Z,20.57
2018-07-21T02:41:52.800Z,20.60
2018-07-21T02:42:52.829Z,20.57
2018-07-21T02:43:52.850Z,20.54
2018-07-21T02:44:52.873Z,20.53
2018-07-21T02:45:52.904Z,20.50
2018-07-21T02:46:52.927Z,20.48
2018-07-21T02:47:52.954Z,20.50
2018-07-21T02:48:52.982Z,20.44
2018-07-21T02:49:53.004Z,20.42
2018-07-21T02:50:53.027Z,20.40
2018-07-21T02:51:53.053Z,20.40
2018-07-21T02:52:53.083Z,20.41
2018-07-21T02:53:53.109Z,20.30
2018-07-21T02:54:53.139Z,20.26
2018-07-21T02:55:53.158Z,20.26
2018-07-21T02:56:53.186Z,20.27
2018-07-21T02:57:53.208Z,20.30
2018-07-21T02:58:53.236Z,20.34
2018-07-21T02:59:53.259Z,20.30
2018-07-21T03:00:53.290Z,20.26
2018-07-21T03:01:53.314Z,20.27
2018-07-21T03:02:53.334Z,20.27
2018-07-21T03:03:53.362Z,20.26
2018-07-21T03:04:53.387Z,20.30
2018-07-21T03:05:53.416Z,20.26
2018-07-21T03:06:53.439Z,20.27
2018-07-21T03:07:53.461Z,20.19
2018-07-21T03:08:53.493Z,20.26
2018-07-21T03:09:53.544Z,20.26
2018-07-21T03:10:53.545Z,20.27
2018-07-21T03:11:53.564Z,20.34
2018-07-21T03:12:53.592Z,20.25
2018-07-21T03:13:53.617Z,20.38
2018-07-21T03:14:53.647Z,20.23
2018-07-21T03:15:53.679Z,20.26
2018-07-21T03:16:53.694Z,20.27
2018-07-21T03:17:53.717Z,20.27
2018-07-21T03:18:53.756Z,20.19
2018-07-21T03:19:53.777Z,20.27
2018-07-21T03:20:53.807Z,20.31
2018-07-21T03:21:53.824Z,20.23
2018-07-21T03:22:53.845Z,20.25
2018-07-21T03:23:53.876Z,20.27
2018-07-21T03:24:53.901Z,20.25
2018-07-21T03:25:53.929Z,20.27
2018-07-21T03:26:53.955Z,20.20
2018-07-21T03:27:53.977Z,20.31
2018-07-21T03:28:54.007Z,20.26
2018-07-21T03:29:54.029Z,20.33
2018-07-21T03:30:54.059Z,20.30
2018-07-21T03:31:54.076Z,20.31
2018-07-21T03:32:54.106Z,20.37
2018-07-21T03:33:54.134Z,20.27
2018-07-21T03:34:54.154Z,20.25
2018-07-21T03:35:54.185Z,20.31
2018-07-21T03:36:54.209Z,20.27
2018-07-21T03:37:54.230Z,20.25
2018-07-21T03:38:54.251Z,20.31
2018-07-21T03:39:54.283Z,20.31
2018-07-21T03:40:54.309Z,20.26
2018-07-21T03:41:54.337Z,20.22
2018-07-21T03:42:54.357Z,20.22
2018-07-21T03:43:54.383Z,20.22
2018-07-21T03:44:54.413Z,20.26
2018-07-21T03:45:54.438Z,20.25
2018-07-21T03:46:54.460Z,20.30
2018-07-21T03:47:54.488Z,20.26
2018-07-21T03:48:54.514Z,20.22
2018-07-21T03:49:54.537Z,20.30
2018-07-21T03:50:54.565Z,20.23
2018-07-21T03:51:54.588Z,20.25
2018-07-21T03:52:54.613Z,20.26
2018-07-21T03:53:54.643Z,20.27
2018-07-21T03:54:54.667Z,20.23
2018-07-21T03:55:54.693Z,20.19
2018-07-21T03:56:54.715Z,20.22
2018-07-21T03:57:54.747Z,20.22
2018-07-21T03:58:54.766Z,20.25
2018-07-21T03:59:54.794Z,20.27
2018-07-21T04:00:54.815Z,20.22
2018-07-21T04:01:54.854Z,20.23
2018-07-21T04:02:54.871Z,20.27
2018-07-21T04:03:54.891Z,20.19
2018-07-21T04:04:54.921Z,20.25
2018-07-21T04:05:54.951Z,20.20
2018-07-21T04:06:54.972Z,20.13
2018-07-21T04:07:54.995Z,20.22
2018-07-21T04:08:55.040Z,20.16
2018-07-21T04:09:55.049Z,20.25
2018-07-21T04:10:55.069Z,20.10
2018-07-21T04:11:55.104Z,20.27
2018-07-21T04:12:55.127Z,20.17
2018-07-21T04:13:55.153Z,20.12
2018-07-21T04:14:55.176Z,20.12
2018-07-21T04:15:55.199Z,20.05
2018-07-21T04:16:55.235Z,20.08
2018-07-21T04:17:55.251Z,20.16
2018-07-21T04:18:55.275Z,20.20
2018-07-21T04:19:55.299Z,20.19
2018-07-21T04:20:55.332Z,20.20
2018-07-21T04:21:55.357Z,20.31
2018-07-21T04:22:55.381Z,20.16
2018-07-21T04:23:55.405Z,20.19
2018-07-21T04:24:55.433Z,20.17
2018-07-21T04:25:55.455Z,20.19
2018-07-21T04:26:55.483Z,20.16
2018-07-21T04:27:55.507Z,20.15
2018-07-21T04:28:55.531Z,20.23
2018-07-21T04:29:55.561Z,20.22
2018-07-21T04:30:55.582Z,20.25
2018-07-21T04:31:55.613Z,20.25
2018-07-21T04:32:55.635Z,20.33
2018-07-21T04:33:55.659Z,20.30
2018-07-21T04:34:55.685Z,20.26
2018-07-21T04:35:55.710Z,20.22
2018-07-21T04:36:55.740Z,20.19
2018-07-21T04:37:55.774Z,20.20
2018-07-21T04:38:55.787Z,20.25
2018-07-21T04:39:55.811Z,20.23
2018-07-21T04:40:55.838Z,20.35
2018-07-21T04:41:55.883Z,20.27
2018-07-21T04:42:55.889Z,20.27
2018-07-21T04:43:55.913Z,20.26
2018-07-21T04:44:55.941Z,20.38
2018-07-21T04:45:55.961Z,20.37
2018-07-21T04:46:55.987Z,20.35
2018-07-21T04:47:56.018Z,20.35
2018-07-21T04:48:56.044Z,20.42
2018-07-21T04:49:56.071Z,20.53
2018-07-21T04:50:56.099Z,20.42
2018-07-21T04:51:56.119Z,20.44
2018-07-21T04:52:56.147Z,20.54
2018-07-21T04:53:56.176Z,20.58
2018-07-21T04:54:56.195Z,20.63
2018-07-21T04:55:56.221Z,20.66
2018-07-21T04:56:56.256Z,20.75
2018-07-21T04:57:56.273Z,20.68
2018-07-21T04:58:56.298Z,20.76
2018-07-21T04:59:56.324Z,20.75
2018-07-21T05:00:56.427Z,20.75
2018-07-21T05:01:56.381Z,20.76
2018-07-21T05:02:56.401Z,20.79
2018-07-21T05:03:56.430Z,20.85
2018-07-21T05:04:56.462Z,20.96
2018-07-21T05:05:56.477Z,20.97
2018-07-21T05:06:56.509Z,20.88
2018-07-21T05:07:56.531Z,20.94
2018-07-21T05:08:56.560Z,20.98
2018-07-21T05:09:56.581Z,21.01
2018-07-21T05:10:56.608Z,21.11
2018-07-21T05:11:56.637Z,21.06
2018-07-21T05:12:56.659Z,21.11
2018-07-21T05:13:56.693Z,21.18
2018-07-21T05:14:56.712Z,21.19
2018-07-21T05:15:56.742Z,21.28
2018-07-21T05:16:56.768Z,21.24
2018-07-21T05:17:56.790Z,21.27
2018-07-21T05:18:56.820Z,21.27
2018-07-21T05:19:56.882Z,21.27
2018-07-21T05:20:56.868Z,21.37
2018-07-21T05:21:56.901Z,21.40
2018-07-21T05:22:56.923Z,21.45
2018-07-21T05:23:56.949Z,21.55
2018-07-21T05:24:56.975Z,21.52
2018-07-21T05:25:57.004Z,21.53
2018-07-21T05:26:57.029Z,21.49
2018-07-21T05:27:57.053Z,21.52
2018-07-21T05:28:57.076Z,21.46
2018-07-21T05:29:57.103Z,21.46
2018-07-21T05:30:57.132Z,21.55
2018-07-21T05:31:57.158Z,21.53
2018-07-21T05:32:57.192Z,21.61
2018-07-21T05:33:57.213Z,21.58
2018-07-21T05:34:57.242Z,21.64
2018-07-21T05:35:57.264Z,21.68
2018-07-21T05:36:57.288Z,21.79
2018-07-21T05:37:57.318Z,21.89
2018-07-21T05:38:57.385Z,21.89
2018-07-21T05:39:57.368Z,21.85
2018-07-21T05:40:57.391Z,21.90
2018-07-21T05:41:57.422Z,21.96
2018-07-21T05:42:57.446Z,21.89
2018-07-21T05:43:57.474Z,21.90
2018-07-21T05:44:57.536Z,21.99
2018-07-21T05:45:57.527Z,22.02
2018-07-21T05:46:57.552Z,22.09
2018-07-21T05:47:57.577Z,22.14
2018-07-21T05:48:57.607Z,22.11
2018-07-21T05:49:57.633Z,22.23
2018-07-21T05:50:57.657Z,22.31
2018-07-21T05:51:57.684Z,22.21
2018-07-21T05:52:57.717Z,22.30
2018-07-21T05:53:57.740Z,22.33
2018-07-21T05:54:57.772Z,22.24
2018-07-21T05:55:57.803Z,22.27
2018-07-21T05:56:57.819Z,22.30
2018-07-21T05:57:57.847Z,22.26
2018-07-21T05:58:57.879Z,22.39
2018-07-21T05:59:57.901Z,22.33
2018-07-21T06:00:57.927Z,22.45
2018-07-21T06:01:57.949Z,22.45
2018-07-21T06:02:58.026Z,22.39
2018-07-21T06:03:58.007Z,22.45
2018-07-21T06:04:58.033Z,22.44
2018-07-21T06:05:58.065Z,22.46
2018-07-21T06:06:58.085Z,22.48
2018-07-21T06:07:58.113Z,22.49
2018-07-21T06:08:58.140Z,22.39
2018-07-21T06:09:58.175Z,22.41
2018-07-21T06:10:58.207Z,22.42
2018-07-21T06:11:58.221Z,22.46
2018-07-21T06:12:58.249Z,22.52
2018-07-21T06:13:58.281Z,22.59
2018-07-21T06:14:58.319Z,22.54
2018-07-21T06:15:58.328Z,22.56
2018-07-21T06:16:58.361Z,22.57
2018-07-21T06:17:58.417Z,22.61
2018-07-21T06:18:58.409Z,22.56
2018-07-21T06:19:58.436Z,22.75
2018-07-21T06:20:58.463Z,22.70
2018-07-21T06:21:58.491Z,22.74
2018-07-21T06:22:58.517Z,22.78
2018-07-21T06:23:58.549Z,22.76
2018-07-21T06:24:58.573Z,22.78
2018-07-21T06:25:58.597Z,22.82
2018-07-21T06:26:58.627Z,22.88
2018-07-21T06:27:58.859Z,22.88
2018-07-21T06:28:58.679Z,22.85
2018-07-21T06:29:58.705Z,22.96
2018-07-21T06:30:58.735Z,22.99
2018-07-21T06:31:58.761Z,22.89
2018-07-21T06:32:58.893Z,22.84
2018-07-21T06:33:58.823Z,22.79
2018-07-21T06:34:58.843Z,22.75
2018-07-21T06:35:58.869Z,22.81
2018-07-21T06:36:58.891Z,22.76
2018-07-21T06:37:58.921Z,22.74
2018-07-21T06:38:58.959Z,22.79
2018-07-21T06:39:58.979Z,22.88
2018-07-21T06:40:59.011Z,22.84
2018-07-21T06:41:59.031Z,22.84
2018-07-21T06:42:59.061Z,22.94
2018-07-21T06:43:59.156Z,22.96
2018-07-21T06:44:59.120Z,23.03
2018-07-21T06:45:59.142Z,23.07
2018-07-21T06:46:59.164Z,23.06
2018-07-21T06:47:59.193Z,23.12
2018-07-21T06:48:59.221Z,23.21
2018-07-21T06:49:59.253Z,23.23
2018-07-21T06:50:59.278Z,23.23
2018-07-21T06:51:59.309Z,23.23
2018-07-21T06:52:59.334Z,23.23
2018-07-21T06:53:59.363Z,23.32
2018-07-21T06:54:59.383Z,23.31
2018-07-21T06:55:59.418Z,23.47
2018-07-21T06:56:59.442Z,23.47
2018-07-21T06:57:59.469Z,23.38
2018-07-21T06:58:59.528Z,23.54
2018-07-21T06:59:59.528Z,23.52
2018-07-21T07:00:59.549Z,23.56
2018-07-21T07:01:59.573Z,23.64
2018-07-21T07:02:59.609Z,23.69
2018-07-21T07:03:59.632Z,23.69
2018-07-21T07:04:59.661Z,23.71
2018-07-21T07:05:59.685Z,23.68
2018-07-21T07:06:59.711Z,23.71
2018-07-21T07:07:59.738Z,23.68
2018-07-21T07:08:59.769Z,23.74
2018-07-21T07:09:59.799Z,23.74
2018-07-21T07:10:59.837Z,23.60
2018-07-21T07:11:59.849Z,23.69
2018-07-21T07:12:59.885Z,23.64
2018-07-21T07:13:59.909Z,23.68
2018-07-21T07:14:59.933Z,23.68
2018-07-21T07:15:59.965Z,23.75
2018-07-21T07:16:59.996Z,23.81
2018-07-21T07:18:00.015Z,23.87
2018-07-21T07:19:00.045Z,23.89
2018-07-21T07:20:00.078Z,23.90
2018-07-21T07:21:00.107Z,23.87
2018-07-21T07:22:00.131Z,23.87
2018-07-21T07:23:00.154Z,23.97
2018-07-21T07:24:00.186Z,24.04
2018-07-21T07:25:00.218Z,23.90
2018-07-21T07:26:00.245Z,24.02
2018-07-21T07:27:00.265Z,24.06
2018-07-21T07:28:00.294Z,24.21
2018-07-21T07:29:00.324Z,24.26
2018-07-21T07:30:00.351Z,24.39
2018-07-21T07:31:00.379Z,24.45
2018-07-21T07:32:00.406Z,24.46
2018-07-21T07:33:00.434Z,24.52
2018-07-21T07:34:00.463Z,24.55
2018-07-21T07:35:00.490Z,24.56
2018-07-21T07:36:00.520Z,24.64
2018-07-21T07:37:00.550Z,24.67
2018-07-21T07:38:00.579Z,24.55
2018-07-21T07:39:00.597Z,24.56
2018-07-21T07:40:00.633Z,24.60
2018-07-21T07:41:00.657Z,24.61
2018-07-21T07:42:00.684Z,24.48
2018-07-21T07:43:00.719Z,24.46
2018-07-21T07:44:00.740Z,24.64
2018-07-21T07:45:00.770Z,24.59
2018-07-21T07:46:00.799Z,24.52
2018-07-21T07:47:00.823Z,24.56
2018-07-21T07:48:00.849Z,24.60
2018-07-21T07:49:00.885Z,24.56
2018-07-21T07:50:00.951Z,24.53
2018-07-21T07:51:00.939Z,24.56
2018-07-21T07:52:00.967Z,24.59
2018-07-21T07:53:00.991Z,24.55
2018-07-21T07:54:01.030Z,24.51
2018-07-21T07:55:01.051Z,24.44
2018-07-21T07:56:01.075Z,24.49
2018-07-21T07:57:01.105Z,24.42
2018-07-21T07:58:01.135Z,24.31
2018-07-21T07:59:01.165Z,24.41
2018-07-21T08:00:01.195Z,24.41
2018-07-21T08:01:01.225Z,24.59
2018-07-21T08:02:01.252Z,24.64
2018-07-21T08:03:01.277Z,24.68
2018-07-21T08:04:01.304Z,24.64
2018-07-21T08:05:01.329Z,24.68
2018-07-21T08:06:01.359Z,24.77
2018-07-21T08:07:01.387Z,24.87
2018-07-21T08:08:01.410Z,24.97
2018-07-21T08:09:01.443Z,25.12
2018-07-21T08:10:01.474Z,25.04
2018-07-21T08:11:01.501Z,25.04
2018-07-21T08:12:01.535Z,24.99
2018-07-21T08:13:01.557Z,25.04
2018-07-21T08:14:01.624Z,25.08
2018-07-21T08:15:01.619Z,25.05
2018-07-21T08:16:01.640Z,25.02
2018-07-21T08:17:01.673Z,25.08
2018-07-21T08:18:01.703Z,25.05
2018-07-21T08:19:01.722Z,25.02
2018-07-21T08:20:01.758Z,24.89
2018-07-21T08:21:01.783Z,24.84
2018-07-21T08:22:01.821Z,24.90
2018-07-21T08:23:01.841Z,24.87
2018-07-21T08:24:01.872Z,24.92
2018-07-21T08:25:01.897Z,24.83
2018-07-21T08:26:01.935Z,24.92
2018-07-21T08:27:01.962Z,25.04
2018-07-21T08:28:01.976Z,25.14
2018-07-21T08:29:02.056Z,25.17
2018-07-21T08:30:02.041Z,25.22
2018-07-21T08:31:02.063Z,25.19
2018-07-21T08:32:02.095Z,25.16
2018-07-21T08:33:02.125Z,25.22
2018-07-21T08:34:02.149Z,25.22
2018-07-21T08:35:02.180Z,25.19
2018-07-21T08:36:02.207Z,25.23
2018-07-21T08:37:02.241Z,25.30
2018-07-21T08:38:02.269Z,25.30
2018-07-21T08:39:02.285Z,25.45
2018-07-21T08:40:02.321Z,25.36
2018-07-21T08:41:02.344Z,25.48
2018-07-21T08:42:02.378Z,25.41
2018-07-21T08:43:02.413Z,25.54
2018-07-21T08:44:02.433Z,25.51
2018-07-21T08:45:02.464Z,25.46
2018-07-21T08:46:02.493Z,25.63
2018-07-21T08:47:02.519Z,25.61
2018-07-21T08:48:02.548Z,25.75
2018-07-21T08:49:02.577Z,25.83
2018-07-21T08:50:02.603Z,25.79
2018-07-21T08:51:02.638Z,25.67
2018-07-21T08:52:02.663Z,25.78
2018-07-21T08:53:02.692Z,25.76
2018-07-21T08:54:02.721Z,25.89
2018-07-21T08:55:02.750Z,25.94
2018-07-21T08:56:02.810Z,25.98
2018-07-21T08:57:02.817Z,25.94
2018-07-21T08:58:02.840Z,25.97
2018-07-21T08:59:02.863Z,26.08
2018-07-21T09:00:02.893Z,26.00
2018-07-21T09:01:02.923Z,26.01
2018-07-21T09:02:02.951Z,25.97
2018-07-21T09:03:02.975Z,26.03
2018-07-21T09:04:03.013Z,26.01
2018-07-21T09:05:03.037Z,25.98
2018-07-21T09:06:03.067Z,26.00
2018-07-21T09:07:03.095Z,26.03
2018-07-21T09:08:03.121Z,26.08
2018-07-21T09:09:03.162Z,26.08
2018-07-21T09:10:03.179Z,26.08
2018-07-21T09:11:03.213Z,26.06
2018-07-21T09:12:03.240Z,25.96
2018-07-21T09:13:03.319Z,25.97
2018-07-21T09:14:03.297Z,26.03
2018-07-21T09:15:03.324Z,25.94
2018-07-21T09:16:03.357Z,25.93
2018-07-21T09:17:03.382Z,25.96
2018-07-21T09:18:03.412Z,25.89
2018-07-21T09:19:03.441Z,25.90
2018-07-21T09:20:03.474Z,25.89
2018-07-21T09:21:03.501Z,25.82
2018-07-21T09:22:03.531Z,25.91
2018-07-21T09:23:03.550Z,25.96
2018-07-21T09:24:03.589Z,26.01
2018-07-21T09:25:03.614Z,26.00
2018-07-21T09:26:03.648Z,25.98
2018-07-21T09:27:03.672Z,26.12
2018-07-21T09:28:03.723Z,26.12
2018-07-21T09:29:03.731Z,26.19
2018-07-21T09:30:03.755Z,26.12
2018-07-21T09:31:03.788Z,26.12
2018-07-21T09:32:03.816Z,26.27
2018-07-21T09:33:03.858Z,26.28
2018-07-21T09:34:03.885Z,26.46
2018-07-21T09:35:03.906Z,26.51
2018-07-21T09:36:03.931Z,26.73
2018-07-21T09:37:03.963Z,26.78
2018-07-21T09:38:03.998Z,26.78
2018-07-21T09:39:04.018Z,27.11
2018-07-21T09:40:04.055Z,27.05
2018-07-21T09:41:04.081Z,27.16
2018-07-21T09:42:04.104Z,27.24
2018-07-21T09:43:04.132Z,27.24
2018-07-21T09:44:04.165Z,27.31
2018-07-21T09:45:04.187Z,27.31
2018-07-21T09:46:04.222Z,27.25
2018-07-21T09:47:04.251Z,27.28
2018-07-21T09:48:04.280Z,27.09
2018-07-21T09:49:04.313Z,27.11
2018-07-21T09:50:04.332Z,26.96
2018-07-21T09:51:04.368Z,27.05
2018-07-21T09:52:04.394Z,27.08
2018-07-21T09:53:04.428Z,27.16
2018-07-21T09:54:04.458Z,27.34
2018-07-21T09:55:05.703Z,27.50
2018-07-21T09:56:04.622Z,27.58
2018-07-21T09:57:04.547Z,27.87
2018-07-21T09:58:04.576Z,27.91
2018-07-21T09:59:04.603Z,27.84
2018-07-21T10:00:04.629Z,27.84
2018-07-21T10:01:04.663Z,27.72
2018-07-21T10:02:04.692Z,27.74
2018-07-21T10:03:04.728Z,27.76
2018-07-21T10:04:04.754Z,27.91
2018-07-21T10:05:04.779Z,27.78
2018-07-21T10:06:04.810Z,27.83
2018-07-21T10:07:04.836Z,27.72
2018-07-21T10:08:04.878Z,27.86
2018-07-21T10:09:04.902Z,27.84
2018-07-21T10:10:04.929Z,27.76
2018-07-21T10:11:04.964Z,27.72
2018-07-21T10:12:04.994Z,27.84
2018-07-21T10:13:05.022Z,27.88
2018-07-21T10:14:05.053Z,27.88
2018-07-21T10:15:05.080Z,27.90
2018-07-21T10:16:05.108Z,28.11
2018-07-21T10:17:05.138Z,28.25
2018-07-21T10:18:05.175Z,28.24
2018-07-21T10:19:05.196Z,28.32
2018-07-21T10:20:05.238Z,28.36
2018-07-21T10:21:05.257Z,28.35
2018-07-21T10:22:05.295Z,28.45
2018-07-21T10:23:05.317Z,28.57
2018-07-21T10:24:05.352Z,28.52
2018-07-21T10:25:05.377Z,28.55
2018-07-21T10:26:05.407Z,28.60
2018-07-21T10:27:05.441Z,28.58
2018-07-21T10:28:05.519Z,28.69
2018-07-21T10:29:05.504Z,28.79
2018-07-21T10:30:05.556Z,28.85
2018-07-21T10:31:05.558Z,29.00
2018-07-21T10:32:05.594Z,29.10
2018-07-21T10:33:05.626Z,29.14
2018-07-21T10:34:05.659Z,29.23
2018-07-21T10:35:05.676Z,29.15
2018-07-21T10:36:05.846Z,29.14
2018-07-21T10:37:05.742Z,29.20
2018-07-21T10:38:05.810Z,29.21
2018-07-21T10:39:05.804Z,29.23
2018-07-21T10:40:05.830Z,29.35
2018-07-21T10:41:05.871Z,29.23
2018-07-21T10:42:05.892Z,29.39
2018-07-21T10:43:05.923Z,29.26
2018-07-21T10:44:05.959Z,29.17
2018-07-21T10:45:05.989Z,28.98
2018-07-21T10:46:06.020Z,28.88
2018-07-21T10:47:06.045Z,28.89
2018-07-21T10:48:06.079Z,28.97
2018-07-21T10:49:06.104Z,29.21
2018-07-21T10:50:06.138Z,29.25
2018-07-21T10:51:06.167Z,29.17
2018-07-21T10:52:06.197Z,29.08
2018-07-21T10:53:06.232Z,29.02
2018-07-21T10:54:06.263Z,29.12
2018-07-21T10:55:06.288Z,29.17
2018-07-21T10:56:06.318Z,29.14
2018-07-21T10:57:06.353Z,29.18
2018-07-21T10:58:06.380Z,29.23
2018-07-21T10:59:06.410Z,29.36
2018-07-21T11:00:06.444Z,29.60
2018-07-21T11:01:06.474Z,29.74
2018-07-21T11:02:06.506Z,29.89
2018-07-21T11:03:06.538Z,30.04
2018-07-21T11:04:06.568Z,29.92
2018-07-21T11:05:06.597Z,30.06
2018-07-21T11:06:06.636Z,30.06
2018-07-21T11:07:06.656Z,30.06
2018-07-21T11:08:06.741Z,30.07
2018-07-21T11:09:06.726Z,30.04
2018-07-21T11:10:06.753Z,30.04
2018-07-21T11:11:06.795Z,29.89
2018-07-21T11:12:06.818Z,29.88
2018-07-21T11:13:06.848Z,30.08
2018-07-21T11:14:06.878Z,30.03
2018-07-21T11:15:06.922Z,30.13
2018-07-21T11:16:06.939Z,30.40
2018-07-21T11:17:06.966Z,30.51
2018-07-21T11:18:07.054Z,30.59
2018-07-21T11:19:07.043Z,30.40
2018-07-21T11:20:08.074Z,30.61
2018-07-21T11:21:07.096Z,30.68
2018-07-21T11:22:07.123Z,30.61
2018-07-21T11:23:07.160Z,30.34
2018-07-21T11:24:07.189Z,30.15
2018-07-21T11:25:07.224Z,29.95
2018-07-21T11:26:07.255Z,29.92
2018-07-21T11:27:07.281Z,29.84
2018-07-21T11:28:07.315Z,29.78
2018-07-21T11:29:07.352Z,29.78
2018-07-21T11:30:07.377Z,29.79
2018-07-21T11:31:07.413Z,29.63
2018-07-21T11:32:07.442Z,29.58
2018-07-21T11:33:07.470Z,29.42
2018-07-21T11:34:07.500Z,29.30
2018-07-21T11:35:07.574Z,29.25
2018-07-21T11:36:07.782Z,29.17
2018-07-21T11:37:07.598Z,29.05
2018-07-21T11:38:07.626Z,29.00
2018-07-21T11:39:07.658Z,28.89
2018-07-21T11:40:07.685Z,28.97
2018-07-21T11:41:07.714Z,29.15
2018-07-21T11:42:07.756Z,29.30
2018-07-21T11:43:07.780Z,29.44
2018-07-21T11:44:07.814Z,29.60
2018-07-21T11:45:07.841Z,29.58
2018-07-21T11:46:07.873Z,29.66
2018-07-21T11:47:07.903Z,29.86
2018-07-21T11:48:07.939Z,30.00
2018-07-21T11:49:07.966Z,30.10
2018-07-21T11:50:07.988Z,30.56
2018-07-21T11:51:08.028Z,30.63
2018-07-21T11:52:08.056Z,30.73
2018-07-21T11:53:08.083Z,30.83
2018-07-21T11:54:08.121Z,31.37
2018-07-21T11:55:08.158Z,32.90
2018-07-21T11:56:08.183Z,33.52
2018-07-21T11:57:08.210Z,34.42
2018-07-21T11:58:08.243Z,34.49
2018-07-21T11:59:08.295Z,34.15
2018-07-21T12:00:08.318Z,34.09
2018-07-21T12:01:08.342Z,34.00
2018-07-21T12:02:08.376Z,33.90
2018-07-21T12:03:08.408Z,33.71
2018-07-21T12:04:08.436Z,33.70
2018-07-21T12:05:08.474Z,33.29
2018-07-21T12:06:08.504Z,33.06
2018-07-21T12:07:08.542Z,32.81
2018-07-21T12:08:08.574Z,32.47
2018-07-21T12:09:08.606Z,32.27
2018-07-21T12:10:08.640Z,32.28
2018-07-21T12:11:08.675Z,32.16
2018-07-21T12:12:08.707Z,32.22
2018-07-21T12:13:08.787Z,32.65
2018-07-21T12:14:08.778Z,33.09
2018-07-21T12:15:08.806Z,33.66
2018-07-21T12:16:08.850Z,33.71
2018-07-21T12:17:08.873Z,33.86
2018-07-21T12:18:08.919Z,34.05
2018-07-21T12:19:08.937Z,33.94
2018-07-21T12:20:08.976Z,33.55
2018-07-21T12:21:09.010Z,33.44
2018-07-21T12:22:09.050Z,33.29
2018-07-21T12:23:09.080Z,32.93
2018-07-21T12:24:09.109Z,32.90
2018-07-21T12:25:09.150Z,33.05
2018-07-21T12:26:09.186Z,33.00
2018-07-21T12:27:09.214Z,32.91
2018-07-21T12:28:09.244Z,32.96
2018-07-21T12:29:09.283Z,33.02
2018-07-21T12:30:09.317Z,33.11
2018-07-21T12:31:09.345Z,33.03
2018-07-21T12:32:09.387Z,32.83
2018-07-21T12:33:09.415Z,32.72
2018-07-21T12:34:09.483Z,32.68
2018-07-21T12:35:09.489Z,32.88
2018-07-21T12:36:09.512Z,32.73
2018-07-21T12:37:09.551Z,32.77
2018-07-21T12:38:09.583Z,32.50
2018-07-21T12:39:09.617Z,32.25
2018-07-21T12:40:09.694Z,32.22
2018-07-21T12:41:09.690Z,31.95
2018-07-21T12:42:09.719Z,31.91
2018-07-21T12:43:09.747Z,32.09
2018-07-21T12:44:09.786Z,31.94
2018-07-21T12:45:09.815Z,31.88
2018-07-21T12:46:09.848Z,31.95
2018-07-21T12:47:09.895Z,31.95
2018-07-21T12:48:09.912Z,32.22
2018-07-21T12:49:09.948Z,32.31
2018-07-21T12:50:09.984Z,32.46
2018-07-21T12:51:10.020Z,32.83
2018-07-21T12:52:10.046Z,32.95
2018-07-21T12:53:10.079Z,33.26